sensor_id;sensor_type;location;lat;lon;timestamp;P1;durP1;ratioP1;P2;durP2;ratioP2
4210;SDS011;2119;48.828;12.396;2023-06-24T00:02:59;4.47;;;4.13;;
4210;SDS011;2119;48.828;12.396;2023-06-24T00:08:02;3.67;;;3.37;;
4210;SDS011;2119;48.828;12.396;2023-06-24T00:13:03;3.63;;;3.33;;
4210;SDS011;2119;48.828;12.396;2023-06-24T00:18:03;3.27;;;3.07;;
4210;SDS011;2119;48.828;12.396;2023-06-24T00:23:06;3.47;;;3.27;;
4210;SDS011;2119;48.828;12.396;2023-06-24T00:28:06;3.78;;;3.47;;
4210;SDS011;2119;48.828;12.396;2023-06-24T00:33:06;3.33;;;3.13;;
4210;SDS011;2119;48.828;12.396;2023-06-24T00:38:10;4.10;;;3.80;;
4210;SDS011;2119;48.828;12.396;2023-06-24T00:43:11;5.03;;;4.53;;
4210;SDS011;2119;48.828;12.396;2023-06-24T00:48:11;3.90;;;3.50;;
4210;SDS011;2119;48.828;12.396;2023-06-24T00:53:11;4.50;;;4.10;;
4210;SDS011;2119;48.828;12.396;2023-06-24T00:58:12;4.40;;;4.00;;
4210;SDS011;2119;48.828;12.396;2023-06-24T01:03:16;4.20;;;3.90;;
4210;SDS011;2119;48.828;12.396;2023-06-24T01:08:16;4.05;;;3.80;;
4210;SDS011;2119;48.828;12.396;2023-06-24T01:13:19;4.93;;;4.40;;
4210;SDS011;2119;48.828;12.396;2023-06-24T01:29:02;4.97;;;4.20;;
4210;SDS011;2119;48.828;12.396;2023-06-24T01:34:15;4.97;;;4.57;;
4210;SDS011;2119;48.828;12.396;2023-06-24T01:39:17;4.60;;;4.30;;
4210;SDS011;2119;48.828;12.396;2023-06-24T01:44:18;4.83;;;4.43;;
4210;SDS011;2119;48.828;12.396;2023-06-24T01:49:19;4.63;;;4.30;;
4210;SDS011;2119;48.828;12.396;2023-06-24T01:54:20;4.17;;;3.87;;
4210;SDS011;2119;48.828;12.396;2023-06-24T01:59:22;5.20;;;4.80;;
4210;SDS011;2119;48.828;12.396;2023-06-24T02:04:23;4.77;;;4.43;;
4210;SDS011;2119;48.828;12.396;2023-06-24T02:09:24;4.90;;;4.60;;
4210;SDS011;2119;48.828;12.396;2023-06-24T02:14:25;6.50;;;5.00;;
4210;SDS011;2119;48.828;12.396;2023-06-24T02:19:27;5.93;;;5.33;;
4210;SDS011;2119;48.828;12.396;2023-06-24T02:24:29;5.13;;;4.73;;
4210;SDS011;2119;48.828;12.396;2023-06-24T02:29:29;5.63;;;5.30;;
4210;SDS011;2119;48.828;12.396;2023-06-24T02:34:30;6.80;;;6.10;;
4210;SDS011;2119;48.828;12.396;2023-06-24T02:39:31;5.73;;;5.27;;
4210;SDS011;2119;48.828;12.396;2023-06-24T02:44:31;5.97;;;5.47;;
4210;SDS011;2119;48.828;12.396;2023-06-24T02:49:32;6.20;;;5.70;;
4210;SDS011;2119;48.828;12.396;2023-06-24T02:54:32;5.63;;;5.30;;
4210;SDS011;2119;48.828;12.396;2023-06-24T02:59:33;5.70;;;5.30;;
4210;SDS011;2119;48.828;12.396;2023-06-24T03:04:33;5.30;;;4.73;;
4210;SDS011;2119;48.828;12.396;2023-06-24T03:09:34;7.27;;;5.60;;
4210;SDS011;2119;48.828;12.396;2023-06-24T03:14:35;6.40;;;6.00;;
4210;SDS011;2119;48.828;12.396;2023-06-24T03:19:35;6.93;;;6.33;;
4210;SDS011;2119;48.828;12.396;2023-06-24T03:24:35;6.40;;;6.00;;
4210;SDS011;2119;48.828;12.396;2023-06-24T03:29:35;6.60;;;6.10;;
4210;SDS011;2119;48.828;12.396;2023-06-24T03:34:36;6.47;;;6.03;;
4210;SDS011;2119;48.828;12.396;2023-06-24T03:39:36;6.63;;;6.13;;
4210;SDS011;2119;48.828;12.396;2023-06-24T03:44:36;6.88;;;6.18;;
4210;SDS011;2119;48.828;12.396;2023-06-24T03:49:36;7.20;;;6.60;;
4210;SDS011;2119;48.828;12.396;2023-06-24T03:54:37;6.50;;;6.10;;
4210;SDS011;2119;48.828;12.396;2023-06-24T03:59:37;7.68;;;6.97;;
4210;SDS011;2119;48.828;12.396;2023-06-24T04:04:37;6.50;;;5.90;;
4210;SDS011;2119;48.828;12.396;2023-06-24T04:09:37;7.60;;;6.47;;
4210;SDS011;2119;48.828;12.396;2023-06-24T04:14:38;7.00;;;6.50;;
4210;SDS011;2119;48.828;12.396;2023-06-24T04:19:38;6.93;;;6.20;;
4210;SDS011;2119;48.828;12.396;2023-06-24T04:24:39;7.67;;;6.47;;
4210;SDS011;2119;48.828;12.396;2023-06-24T04:29:39;8.43;;;6.45;;
4210;SDS011;2119;48.828;12.396;2023-06-24T04:34:40;7.28;;;6.57;;
4210;SDS011;2119;48.828;12.396;2023-06-24T04:39:40;7.43;;;6.73;;
4210;SDS011;2119;48.828;12.396;2023-06-24T04:44:41;7.10;;;6.40;;
4210;SDS011;2119;48.828;12.396;2023-06-24T04:49:41;7.13;;;6.43;;
4210;SDS011;2119;48.828;12.396;2023-06-24T04:54:41;7.43;;;6.78;;
4210;SDS011;2119;48.828;12.396;2023-06-24T04:59:41;7.97;;;7.28;;
4210;SDS011;2119;48.828;12.396;2023-06-24T05:04:42;7.43;;;6.63;;
4210;SDS011;2119;48.828;12.396;2023-06-24T05:09:42;7.30;;;6.60;;
4210;SDS011;2119;48.828;12.396;2023-06-24T05:14:43;9.20;;;7.30;;
4210;SDS011;2119;48.828;12.396;2023-06-24T05:19:43;7.38;;;6.88;;
4210;SDS011;2119;48.828;12.396;2023-06-24T05:24:44;7.10;;;6.50;;
4210;SDS011;2119;48.828;12.396;2023-06-24T05:29:44;6.93;;;6.40;;
4210;SDS011;2119;48.828;12.396;2023-06-24T05:34:44;8.43;;;6.10;;
4210;SDS011;2119;48.828;12.396;2023-06-24T05:39:44;6.43;;;5.93;;
4210;SDS011;2119;48.828;12.396;2023-06-24T05:44:45;7.03;;;6.43;;
4210;SDS011;2119;48.828;12.396;2023-06-24T05:49:45;6.10;;;5.70;;
4210;SDS011;2119;48.828;12.396;2023-06-24T05:54:45;6.30;;;5.50;;
4210;SDS011;2119;48.828;12.396;2023-06-24T05:59:45;6.80;;;6.30;;
4210;SDS011;2119;48.828;12.396;2023-06-24T06:04:46;6.67;;;6.07;;
4210;SDS011;2119;48.828;12.396;2023-06-24T06:09:46;7.50;;;6.90;;
4210;SDS011;2119;48.828;12.396;2023-06-24T06:14:47;7.47;;;6.80;;
4210;SDS011;2119;48.828;12.396;2023-06-24T06:19:47;7.13;;;6.63;;
4210;SDS011;2119;48.828;12.396;2023-06-24T06:24:47;9.30;;;6.70;;
4210;SDS011;2119;48.828;12.396;2023-06-24T06:29:47;8.18;;;7.38;;
4210;SDS011;2119;48.828;12.396;2023-06-24T06:34:48;7.33;;;6.63;;
4210;SDS011;2119;48.828;12.396;2023-06-24T06:39:48;7.67;;;6.97;;
4210;SDS011;2119;48.828;12.396;2023-06-24T06:44:48;7.00;;;6.50;;
4210;SDS011;2119;48.828;12.396;2023-06-24T06:49:49;7.20;;;6.60;;
4210;SDS011;2119;48.828;12.396;2023-06-24T06:54:49;6.53;;;6.03;;
4210;SDS011;2119;48.828;12.396;2023-06-24T06:59:49;7.00;;;6.50;;
4210;SDS011;2119;48.828;12.396;2023-06-24T07:04:51;6.93;;;6.43;;
4210;SDS011;2119;48.828;12.396;2023-06-24T07:09:51;6.73;;;6.13;;
4210;SDS011;2119;48.828;12.396;2023-06-24T07:14:51;8.63;;;6.90;;
4210;SDS011;2119;48.828;12.396;2023-06-24T07:19:51;6.38;;;5.88;;
4210;SDS011;2119;48.828;12.396;2023-06-24T07:24:52;5.88;;;5.28;;
4210;SDS011;2119;48.828;12.396;2023-06-24T07:29:52;6.10;;;5.60;;
4210;SDS011;2119;48.828;12.396;2023-06-24T07:34:52;5.43;;;5.13;;
4210;SDS011;2119;48.828;12.396;2023-06-24T07:39:52;5.45;;;5.15;;
4210;SDS011;2119;48.828;12.396;2023-06-24T07:44:53;6.27;;;5.77;;
4210;SDS011;2119;48.828;12.396;2023-06-24T07:49:53;7.00;;;6.40;;
4210;SDS011;2119;48.828;12.396;2023-06-24T07:54:53;6.60;;;6.10;;
4210;SDS011;2119;48.828;12.396;2023-06-24T07:59:53;6.30;;;5.70;;
4210;SDS011;2119;48.828;12.396;2023-06-24T08:04:54;6.67;;;6.17;;
4210;SDS011;2119;48.828;12.396;2023-06-24T08:09:55;8.05;;;5.88;;
4210;SDS011;2119;48.828;12.396;2023-06-24T08:14:55;6.00;;;5.60;;
4210;SDS011;2119;48.828;12.396;2023-06-24T08:19:55;6.00;;;5.60;;
4210;SDS011;2119;48.828;12.396;2023-06-24T08:24:56;9.88;;;6.70;;
4210;SDS011;2119;48.828;12.396;2023-06-24T08:29:56;8.90;;;6.60;;
4210;SDS011;2119;48.828;12.396;2023-06-24T08:34:56;6.57;;;6.00;;
4210;SDS011;2119;48.828;12.396;2023-06-24T08:39:56;6.73;;;6.33;;
4210;SDS011;2119;48.828;12.396;2023-06-24T08:44:57;6.50;;;6.10;;
4210;SDS011;2119;48.828;12.396;2023-06-24T08:50:04;7.00;;;6.50;;
4210;SDS011;2119;48.828;12.396;2023-06-24T08:55:06;7.67;;;7.07;;
4210;SDS011;2119;48.828;12.396;2023-06-24T09:00:06;7.20;;;6.60;;
4210;SDS011;2119;48.828;12.396;2023-06-24T09:05:10;8.00;;;7.30;;
4210;SDS011;2119;48.828;12.396;2023-06-24T09:10:11;7.00;;;6.40;;
4210;SDS011;2119;48.828;12.396;2023-06-24T09:15:31;7.27;;;6.63;;
4210;SDS011;2119;48.828;12.396;2023-06-24T09:20:32;6.50;;;6.10;;
4210;SDS011;2119;48.828;12.396;2023-06-24T09:25:33;6.63;;;6.13;;
4210;SDS011;2119;48.828;12.396;2023-06-24T09:30:33;6.43;;;5.88;;
4210;SDS011;2119;48.828;12.396;2023-06-24T09:35:34;5.53;;;5.03;;
4210;SDS011;2119;48.828;12.396;2023-06-24T09:40:35;11.17;;;6.33;;
4210;SDS011;2119;48.828;12.396;2023-06-24T09:45:36;6.00;;;5.60;;
4210;SDS011;2119;48.828;12.396;2023-06-24T09:50:36;4.80;;;4.53;;
4210;SDS011;2119;48.828;12.396;2023-06-24T09:55:37;5.50;;;4.83;;
4210;SDS011;2119;48.828;12.396;2023-06-24T10:00:43;5.73;;;5.23;;
4210;SDS011;2119;48.828;12.396;2023-06-24T10:05:44;4.83;;;4.53;;
4210;SDS011;2119;48.828;12.396;2023-06-24T10:10:44;5.80;;;5.30;;
4210;SDS011;2119;48.828;12.396;2023-06-24T10:15:44;4.47;;;4.17;;
4210;SDS011;2119;48.828;12.396;2023-06-24T10:20:47;4.90;;;4.60;;
4210;SDS011;2119;48.828;12.396;2023-06-24T10:25:48;4.87;;;4.57;;
4210;SDS011;2119;48.828;12.396;2023-06-24T10:30:54;5.33;;;5.03;;
4210;SDS011;2119;48.828;12.396;2023-06-24T10:35:55;5.30;;;5.00;;
4210;SDS011;2119;48.828;12.396;2023-06-24T10:40:55;4.60;;;4.20;;
4210;SDS011;2119;48.828;12.396;2023-06-24T10:45:56;5.10;;;4.70;;
4210;SDS011;2119;48.828;12.396;2023-06-24T10:50:57;5.67;;;5.23;;
4210;SDS011;2119;48.828;12.396;2023-06-24T10:55:57;5.20;;;4.77;;
4210;SDS011;2119;48.828;12.396;2023-06-24T11:01:08;5.13;;;4.83;;
4210;SDS011;2119;48.828;12.396;2023-06-24T11:06:10;5.00;;;4.70;;
4210;SDS011;2119;48.828;12.396;2023-06-24T11:11:10;5.13;;;4.67;;
4210;SDS011;2119;48.828;12.396;2023-06-24T11:16:20;4.53;;;4.23;;
4210;SDS011;2119;48.828;12.396;2023-06-24T11:21:23;5.03;;;4.63;;
4210;SDS011;2119;48.828;12.396;2023-06-24T11:26:27;5.17;;;4.80;;
4210;SDS011;2119;48.828;12.396;2023-06-24T11:31:28;4.80;;;4.50;;
4210;SDS011;2119;48.828;12.396;2023-06-24T11:36:28;5.17;;;4.83;;
4210;SDS011;2119;48.828;12.396;2023-06-24T11:41:29;6.00;;;5.40;;
4210;SDS011;2119;48.828;12.396;2023-06-24T11:46:30;4.77;;;4.47;;
4210;SDS011;2119;48.828;12.396;2023-06-24T11:51:34;4.23;;;3.90;;
4210;SDS011;2119;48.828;12.396;2023-06-24T11:56:35;4.97;;;4.67;;
4210;SDS011;2119;48.828;12.396;2023-06-24T12:01:36;4.70;;;4.40;;
4210;SDS011;2119;48.828;12.396;2023-06-24T12:06:38;4.50;;;4.27;;
4210;SDS011;2119;48.828;12.396;2023-06-24T12:11:38;5.10;;;4.70;;
4210;SDS011;2119;48.828;12.396;2023-06-24T12:16:39;4.40;;;4.13;;
4210;SDS011;2119;48.828;12.396;2023-06-24T12:21:39;4.20;;;4.00;;
4210;SDS011;2119;48.828;12.396;2023-06-24T12:26:40;4.77;;;4.47;;
4210;SDS011;2119;48.828;12.396;2023-06-24T12:31:40;4.70;;;4.43;;
4210;SDS011;2119;48.828;12.396;2023-06-24T12:36:41;4.43;;;4.20;;
4210;SDS011;2119;48.828;12.396;2023-06-24T12:41:41;4.90;;;4.43;;
4210;SDS011;2119;48.828;12.396;2023-06-24T12:46:41;4.20;;;3.90;;
4210;SDS011;2119;48.828;12.396;2023-06-24T12:51:42;4.63;;;4.20;;
4210;SDS011;2119;48.828;12.396;2023-06-24T12:56:42;3.87;;;3.67;;
4210;SDS011;2119;48.828;12.396;2023-06-24T13:01:42;4.57;;;4.27;;
4210;SDS011;2119;48.828;12.396;2023-06-24T13:06:44;4.40;;;4.00;;
4210;SDS011;2119;48.828;12.396;2023-06-24T13:11:45;4.27;;;3.97;;
4210;SDS011;2119;48.828;12.396;2023-06-24T13:16:45;3.70;;;3.40;;
4210;SDS011;2119;48.828;12.396;2023-06-24T13:21:46;3.87;;;3.57;;
4210;SDS011;2119;48.828;12.396;2023-06-24T13:26:46;3.63;;;3.43;;
4210;SDS011;2119;48.828;12.396;2023-06-24T13:31:46;3.60;;;3.40;;
4210;SDS011;2119;48.828;12.396;2023-06-24T13:36:47;4.07;;;3.87;;
4210;SDS011;2119;48.828;12.396;2023-06-24T13:41:47;4.90;;;4.60;;
4210;SDS011;2119;48.828;12.396;2023-06-24T13:46:47;3.83;;;3.53;;
4210;SDS011;2119;48.828;12.396;2023-06-24T13:51:48;8.23;;;7.60;;
4210;SDS011;2119;48.828;12.396;2023-06-24T13:56:48;5.70;;;5.40;;
4210;SDS011;2119;48.828;12.396;2023-06-24T14:01:49;3.87;;;3.67;;
4210;SDS011;2119;48.828;12.396;2023-06-24T14:06:49;3.87;;;3.67;;
4210;SDS011;2119;48.828;12.396;2023-06-24T14:11:49;3.85;;;3.58;;
4210;SDS011;2119;48.828;12.396;2023-06-24T14:16:51;4.10;;;3.80;;
4210;SDS011;2119;48.828;12.396;2023-06-24T14:21:51;4.17;;;3.93;;
4210;SDS011;2119;48.828;12.396;2023-06-24T14:26:53;12.83;;;10.40;;
4210;SDS011;2119;48.828;12.396;2023-06-24T14:31:53;16.03;;;14.37;;
4210;SDS011;2119;48.828;12.396;2023-06-24T14:36:53;4.60;;;4.30;;
4210;SDS011;2119;48.828;12.396;2023-06-24T14:41:54;4.60;;;4.30;;
4210;SDS011;2119;48.828;12.396;2023-06-24T14:46:54;4.23;;;3.93;;
4210;SDS011;2119;48.828;12.396;2023-06-24T14:51:54;3.90;;;3.70;;
4210;SDS011;2119;48.828;12.396;2023-06-24T14:56:54;3.87;;;3.67;;
4210;SDS011;2119;48.828;12.396;2023-06-24T15:01:55;4.20;;;3.90;;
4210;SDS011;2119;48.828;12.396;2023-06-24T15:06:55;4.20;;;3.90;;
4210;SDS011;2119;48.828;12.396;2023-06-24T15:11:55;4.40;;;4.03;;
4210;SDS011;2119;48.828;12.396;2023-06-24T15:16:55;10.10;;;9.13;;
4210;SDS011;2119;48.828;12.396;2023-06-24T15:21:58;3.53;;;3.33;;
4210;SDS011;2119;48.828;12.396;2023-06-24T15:26:59;3.63;;;3.43;;
4210;SDS011;2119;48.828;12.396;2023-06-24T15:31:59;3.87;;;3.67;;
4210;SDS011;2119;48.828;12.396;2023-06-24T15:36:59;3.93;;;3.73;;
4210;SDS011;2119;48.828;12.396;2023-06-24T15:42:00;4.17;;;3.80;;
4210;SDS011;2119;48.828;12.396;2023-06-24T15:47:00;4.30;;;4.00;;
4210;SDS011;2119;48.828;12.396;2023-06-24T15:52:00;4.20;;;4.00;;
4210;SDS011;2119;48.828;12.396;2023-06-24T15:57:01;4.20;;;3.90;;
4210;SDS011;2119;48.828;12.396;2023-06-24T16:02:01;3.60;;;3.40;;
4210;SDS011;2119;48.828;12.396;2023-06-24T16:07:01;3.97;;;3.77;;
4210;SDS011;2119;48.828;12.396;2023-06-24T16:12:02;4.20;;;3.90;;
4210;SDS011;2119;48.828;12.396;2023-06-24T16:17:02;4.00;;;3.77;;
4210;SDS011;2119;48.828;12.396;2023-06-24T16:22:03;4.20;;;3.90;;
4210;SDS011;2119;48.828;12.396;2023-06-24T16:27:03;3.70;;;3.50;;
4210;SDS011;2119;48.828;12.396;2023-06-24T16:32:04;3.47;;;3.27;;
4210;SDS011;2119;48.828;12.396;2023-06-24T16:37:04;4.30;;;4.00;;
4210;SDS011;2119;48.828;12.396;2023-06-24T16:42:04;3.97;;;3.67;;
4210;SDS011;2119;48.828;12.396;2023-06-24T16:47:05;3.80;;;3.60;;
4210;SDS011;2119;48.828;12.396;2023-06-24T16:52:05;3.90;;;3.70;;
4210;SDS011;2119;48.828;12.396;2023-06-24T16:57:05;4.40;;;4.00;;
4210;SDS011;2119;48.828;12.396;2023-06-24T17:02:05;4.33;;;3.93;;
4210;SDS011;2119;48.828;12.396;2023-06-24T17:07:06;4.17;;;3.90;;
4210;SDS011;2119;48.828;12.396;2023-06-24T17:12:06;3.70;;;3.50;;
4210;SDS011;2119;48.828;12.396;2023-06-24T17:17:06;4.40;;;4.10;;
4210;SDS011;2119;48.828;12.396;2023-06-24T17:22:07;3.50;;;3.30;;
4210;SDS011;2119;48.828;12.396;2023-06-24T17:27:07;4.93;;;4.63;;
4210;SDS011;2119;48.828;12.396;2023-06-24T17:32:14;3.90;;;3.70;;
4210;SDS011;2119;48.828;12.396;2023-06-24T17:37:16;4.00;;;3.80;;
4210;SDS011;2119;48.828;12.396;2023-06-24T17:42:17;7.10;;;4.30;;
4210;SDS011;2119;48.828;12.396;2023-06-24T17:47:18;3.93;;;3.73;;
4210;SDS011;2119;48.828;12.396;2023-06-24T17:52:18;4.37;;;4.13;;
4210;SDS011;2119;48.828;12.396;2023-06-24T17:57:19;4.77;;;4.47;;
4210;SDS011;2119;48.828;12.396;2023-06-24T18:02:19;4.40;;;4.17;;
4210;SDS011;2119;48.828;12.396;2023-06-24T18:07:20;4.53;;;4.23;;
4210;SDS011;2119;48.828;12.396;2023-06-24T18:12:20;5.10;;;4.70;;
4210;SDS011;2119;48.828;12.396;2023-06-24T18:17:21;4.70;;;4.40;;
4210;SDS011;2119;48.828;12.396;2023-06-24T18:22:21;4.43;;;4.13;;
4210;SDS011;2119;48.828;12.396;2023-06-24T18:27:21;5.53;;;5.13;;
4210;SDS011;2119;48.828;12.396;2023-06-24T18:32:22;5.53;;;4.90;;
4210;SDS011;2119;48.828;12.396;2023-06-24T18:37:22;6.00;;;5.60;;
4210;SDS011;2119;48.828;12.396;2023-06-24T18:42:22;5.17;;;4.87;;
4210;SDS011;2119;48.828;12.396;2023-06-24T18:47:23;6.00;;;5.60;;
4210;SDS011;2119;48.828;12.396;2023-06-24T18:52:23;10.83;;;9.93;;
4210;SDS011;2119;48.828;12.396;2023-06-24T18:57:23;13.37;;;12.20;;
4210;SDS011;2119;48.828;12.396;2023-06-24T19:02:24;8.77;;;8.07;;
4210;SDS011;2119;48.828;12.396;2023-06-24T19:07:24;7.33;;;6.63;;
4210;SDS011;2119;48.828;12.396;2023-06-24T19:12:25;8.40;;;7.80;;
4210;SDS011;2119;48.828;12.396;2023-06-24T19:17:25;6.20;;;5.80;;
4210;SDS011;2119;48.828;12.396;2023-06-24T19:22:25;5.20;;;4.90;;
4210;SDS011;2119;48.828;12.396;2023-06-24T19:27:25;5.07;;;4.55;;
4210;SDS011;2119;48.828;12.396;2023-06-24T19:32:29;5.00;;;4.60;;
4210;SDS011;2119;48.828;12.396;2023-06-24T19:37:30;5.80;;;5.40;;
4210;SDS011;2119;48.828;12.396;2023-06-24T19:42:30;6.50;;;6.00;;
4210;SDS011;2119;48.828;12.396;2023-06-24T19:47:30;6.40;;;5.77;;
4210;SDS011;2119;48.828;12.396;2023-06-24T19:52:31;6.93;;;6.17;;
4210;SDS011;2119;48.828;12.396;2023-06-24T19:57:31;5.50;;;5.20;;
4210;SDS011;2119;48.828;12.396;2023-06-24T20:02:32;9.30;;;8.40;;
4210;SDS011;2119;48.828;12.396;2023-06-24T20:07:32;13.60;;;12.00;;
4210;SDS011;2119;48.828;12.396;2023-06-24T20:12:32;27.13;;;22.30;;
4210;SDS011;2119;48.828;12.396;2023-06-24T20:17:33;24.13;;;21.50;;
4210;SDS011;2119;48.828;12.396;2023-06-24T20:22:34;13.83;;;12.40;;
4210;SDS011;2119;48.828;12.396;2023-06-24T20:27:34;9.37;;;8.37;;
4210;SDS011;2119;48.828;12.396;2023-06-24T20:32:35;7.27;;;6.67;;
4210;SDS011;2119;48.828;12.396;2023-06-24T20:37:36;6.03;;;5.63;;
4210;SDS011;2119;48.828;12.396;2023-06-24T20:42:36;7.00;;;6.43;;
4210;SDS011;2119;48.828;12.396;2023-06-24T20:47:37;6.43;;;5.97;;
4210;SDS011;2119;48.828;12.396;2023-06-24T20:52:37;6.90;;;6.30;;
4210;SDS011;2119;48.828;12.396;2023-06-24T20:57:38;5.97;;;5.57;;
4210;SDS011;2119;48.828;12.396;2023-06-24T21:02:38;6.33;;;5.83;;
4210;SDS011;2119;48.828;12.396;2023-06-24T21:07:38;8.73;;;8.00;;
4210;SDS011;2119;48.828;12.396;2023-06-24T21:12:38;6.83;;;6.30;;
4210;SDS011;2119;48.828;12.396;2023-06-24T21:17:39;7.07;;;6.57;;
4210;SDS011;2119;48.828;12.396;2023-06-24T21:22:39;7.07;;;6.43;;
4210;SDS011;2119;48.828;12.396;2023-06-24T21:27:39;7.78;;;7.18;;
4210;SDS011;2119;48.828;12.396;2023-06-24T21:32:40;6.57;;;6.07;;
4210;SDS011;2119;48.828;12.396;2023-06-24T21:37:40;6.47;;;5.97;;
4210;SDS011;2119;48.828;12.396;2023-06-24T21:42:40;6.78;;;6.18;;
4210;SDS011;2119;48.828;12.396;2023-06-24T21:47:40;8.53;;;7.73;;
4210;SDS011;2119;48.828;12.396;2023-06-24T21:52:41;6.53;;;6.07;;
4210;SDS011;2119;48.828;12.396;2023-06-24T21:57:41;7.78;;;7.13;;
4210;SDS011;2119;48.828;12.396;2023-06-24T22:02:43;7.47;;;6.87;;
4210;SDS011;2119;48.828;12.396;2023-06-24T22:07:43;7.60;;;6.90;;
4210;SDS011;2119;48.828;12.396;2023-06-24T22:12:44;7.40;;;6.80;;
4210;SDS011;2119;48.828;12.396;2023-06-24T22:17:44;8.33;;;7.57;;
4210;SDS011;2119;48.828;12.396;2023-06-24T22:22:44;7.90;;;7.30;;
4210;SDS011;2119;48.828;12.396;2023-06-24T22:27:45;6.70;;;6.20;;
4210;SDS011;2119;48.828;12.396;2023-06-24T22:32:45;6.37;;;5.90;;
4210;SDS011;2119;48.828;12.396;2023-06-24T22:37:45;7.33;;;6.57;;
4210;SDS011;2119;48.828;12.396;2023-06-24T22:42:46;8.00;;;6.60;;
4210;SDS011;2119;48.828;12.396;2023-06-24T22:47:46;7.83;;;6.90;;
4210;SDS011;2119;48.828;12.396;2023-06-24T22:52:46;7.05;;;6.53;;
4210;SDS011;2119;48.828;12.396;2023-06-24T22:57:46;6.93;;;6.43;;
4210;SDS011;2119;48.828;12.396;2023-06-24T23:02:47;7.10;;;6.50;;
4210;SDS011;2119;48.828;12.396;2023-06-24T23:07:47;7.80;;;6.50;;
4210;SDS011;2119;48.828;12.396;2023-06-24T23:12:47;7.10;;;6.50;;
4210;SDS011;2119;48.828;12.396;2023-06-24T23:17:51;6.47;;;5.87;;
4210;SDS011;2119;48.828;12.396;2023-06-24T23:22:52;8.30;;;6.50;;
4210;SDS011;2119;48.828;12.396;2023-06-24T23:27:55;7.23;;;6.67;;
4210;SDS011;2119;48.828;12.396;2023-06-24T23:32:58;6.93;;;6.33;;
4210;SDS011;2119;48.828;12.396;2023-06-24T23:38:00;7.47;;;6.87;;
4210;SDS011;2119;48.828;12.396;2023-06-24T23:43:00;7.00;;;6.30;;
4210;SDS011;2119;48.828;12.396;2023-06-24T23:48:00;7.67;;;6.97;;
4210;SDS011;2119;48.828;12.396;2023-06-24T23:53:01;6.80;;;6.10;;
4210;SDS011;2119;48.828;12.396;2023-06-24T23:58:01;6.93;;;6.35;;
